Time,TemperatureF,DewpointF,PressureIn,WindDirection,WindDirectionDegrees,WindSpeedMPH,WindSpeedGustMPH,Humidity,HourlyPrecipIn,Conditions,Clouds,dailyrainin,SoftwareType,DateUTC
2013-01-17 00:05:00,35.0,33.0,29.74,SSW,204,5.0,5.0,92,0.00,,,0.00,,2013-01-17 05:05:00,
2013-01-17 00:12:00,35.0,33.0,29.74,SSW,204,5.0,5.0,92,0.00,,,0.00,,2013-01-17 05:12:00,
2013-01-17 00:22:00,35.0,33.0,29.74,WSW,258,7.0,7.0,92,0.00,,,0.00,,2013-01-17 05:22:00,
2013-01-17 00:33:00,35.0,33.0,29.75,West,279,0.0,2.0,91,0.00,,,0.00,,2013-01-17 05:33:00,
2013-01-17 00:42:00,35.0,33.0,29.75,West,279,0.0,2.0,91,0.00,,,0.00,,2013-01-17 05:42:00,
2013-01-17 00:52:00,35.0,33.0,29.75,West,271,2.0,4.0,92,0.00,,,0.00,,2013-01-17 05:52:00,
2013-01-17 01:03:00,35.0,33.0,29.75,West,271,2.0,4.0,92,0.00,,,0.00,,2013-01-17 06:03:00,
2013-01-17 01:12:00,35.0,33.0,29.75,SW,224,3.0,3.0,92,0.00,,,0.00,,2013-01-17 06:12:00,
2013-01-17 01:22:00,35.0,33.0,29.75,SW,224,3.0,3.0,92,0.00,,,0.00,,2013-01-17 06:22:00,
2013-01-17 01:32:00,35.0,33.0,29.75,SW,227,1.0,4.0,92,0.00,,,0.00,,2013-01-17 06:32:00,
2013-01-17 01:42:00,35.0,33.0,29.75,SW,227,1.0,4.0,92,0.00,,,0.00,,2013-01-17 06:42:00,
2013-01-17 01:52:00,34.0,32.0,29.76,West,273,2.0,4.0,93,0.00,,,0.00,,2013-01-17 06:52:00,
2013-01-17 02:02:00,34.0,32.0,29.76,West,273,2.0,4.0,93,0.00,,,0.00,,2013-01-17 07:02:00,
2013-01-17 02:12:00,34.0,32.0,29.76,West,273,2.0,4.0,93,0.00,,,0.00,,2013-01-17 07:12:00,
2013-01-17 02:22:00,34.0,33.0,29.77,SSW,199,4.0,4.0,96,0.00,,,0.00,,2013-01-17 07:22:00,
2013-01-17 02:32:00,33.0,32.0,29.78,West,279,1.0,2.0,98,0.00,,,0.00,,2013-01-17 07:32:00,
2013-01-17 02:42:00,33.0,32.0,29.78,West,279,1.0,2.0,98,0.00,,,0.00,,2013-01-17 07:42:00,
2013-01-17 02:52:00,33.0,33.0,29.78,West,273,2.0,5.0,99,0.00,,,0.00,,2013-01-17 07:52:00,
2013-01-17 03:02:00,33.0,33.0,29.78,West,273,2.0,5.0,99,0.00,,,0.00,,2013-01-17 08:02:00,
2013-01-17 03:12:00,33.0,33.0,29.78,West,273,2.0,5.0,99,0.00,,,0.00,,2013-01-17 08:12:00,
2013-01-17 03:22:00,33.0,33.0,29.78,West,262,6.0,6.0,99,0.00,,,0.00,,2013-01-17 08:22:00,
2013-01-17 03:32:00,33.0,33.0,29.78,WSW,256,4.0,5.0,100,0.00,,,0.00,,2013-01-17 08:32:00,
2013-01-17 03:43:00,33.0,33.0,29.78,WSW,256,4.0,5.0,100,0.00,,,0.00,,2013-01-17 08:43:00,
2013-01-17 03:52:00,33.0,33.0,29.78,SSW,203,1.0,5.0,100,0.00,,,0.00,,2013-01-17 08:52:00,
2013-01-17 04:03:00,33.0,33.0,29.78,SSW,203,1.0,5.0,100,0.00,,,0.00,,2013-01-17 09:03:00,
2013-01-17 04:12:00,33.0,33.0,29.78,SSW,203,1.0,5.0,100,0.00,,,0.00,,2013-01-17 09:12:00,
2013-01-17 04:22:00,33.0,33.0,29.78,WNW,295,2.0,2.0,100,0.00,,,0.00,,2013-01-17 09:22:00,
2013-01-17 04:32:00,32.0,32.0,29.78,NW,316,0.0,5.0,100,0.00,,,0.00,,2013-01-17 09:32:00,
2013-01-17 04:42:00,32.0,32.0,29.78,NW,316,0.0,5.0,100,0.00,,,0.00,,2013-01-17 09:42:00,
2013-01-17 04:52:00,32.0,32.0,29.79,West,278,3.0,3.0,100,0.00,,,0.00,,2013-01-17 09:52:00,
2013-01-17 05:02:00,32.0,32.0,29.79,West,278,3.0,3.0,100,0.00,,,0.00,,2013-01-17 10:02:00,
2013-01-17 05:12:00,32.0,32.0,29.79,West,278,3.0,3.0,100,0.00,,,0.00,,2013-01-17 10:12:00,
2013-01-17 05:22:00,32.0,32.0,29.80,SW,232,3.0,5.0,100,0.00,,,0.00,,2013-01-17 10:22:00,
2013-01-17 05:32:00,32.0,32.0,29.80,WSW,245,9.0,9.0,100,0.00,,,0.00,,2013-01-17 10:32:00,
2013-01-17 05:42:00,32.0,32.0,29.80,WSW,245,9.0,9.0,100,0.00,,,0.00,,2013-01-17 10:42:00,
2013-01-17 05:52:00,31.0,31.0,29.84,NW,307,7.0,7.0,99,0.00,,,0.00,,2013-01-17 10:52:00,
2013-01-17 06:03:00,31.0,31.0,29.84,NW,307,7.0,7.0,99,0.00,,,0.00,,2013-01-17 11:03:00,
2013-01-17 06:12:00,31.0,31.0,29.84,NW,307,7.0,7.0,99,0.00,,,0.00,,2013-01-17 11:12:00,
2013-01-17 06:22:00,28.0,28.0,29.86,West,271,9.0,9.0,99,0.00,,,0.00,,2013-01-17 11:22:00,
2013-01-17 06:33:00,25.0,24.0,29.89,WNW,302,6.0,7.0,96,0.00,,,0.00,,2013-01-17 11:33:00,
2013-01-17 06:43:00,25.0,24.0,29.89,WNW,302,6.0,7.0,96,0.00,,,0.00,,2013-01-17 11:43:00,
2013-01-17 06:52:00,23.0,21.0,29.92,WNW,282,6.0,11.0,92,0.00,,,0.00,,2013-01-17 11:52:00,
2013-01-17 07:03:00,23.0,21.0,29.92,WNW,282,6.0,11.0,92,0.00,,,0.00,,2013-01-17 12:03:00,
2013-01-17 07:12:00,23.0,21.0,29.92,WNW,282,6.0,11.0,92,0.00,,,0.00,,2013-01-17 12:12:00,
2013-01-17 07:23:00,23.0,22.0,29.94,NNW,340,6.0,6.0,95,0.00,,,0.00,,2013-01-17 12:23:00,
2013-01-17 07:33:00,22.0,20.0,29.97,WSW,254,6.0,6.0,91,0.00,,,0.00,,2013-01-17 12:33:00,
2013-01-17 07:43:00,22.0,20.0,29.97,WSW,254,6.0,6.0,91,0.00,,,0.00,,2013-01-17 12:43:00,
2013-01-17 07:52:00,21.0,18.0,30.00,West,265,5.0,7.0,89,0.00,,,0.00,,2013-01-17 12:52:00,
2013-01-17 08:03:00,21.0,18.0,30.00,West,265,5.0,7.0,89,0.00,,,0.00,,2013-01-17 13:03:00,
2013-01-17 08:12:00,21.0,18.0,30.00,West,265,5.0,7.0,89,0.00,,,0.00,,2013-01-17 13:12:00,
2013-01-17 08:23:00,20.0,17.0,30.02,WNW,288,4.0,6.0,89,0.00,,,0.00,,2013-01-17 13:23:00,
2013-01-17 08:33:00,20.0,17.0,30.02,WNW,288,4.0,6.0,89,0.00,,,0.00,,2013-01-17 13:33:00,
2013-01-17 08:43:00,16.0,13.0,30.08,WNW,303,2.0,6.0,86,0.00,,,0.00,,2013-01-17 13:43:00,
2013-01-17 08:52:00,16.0,13.0,30.08,WNW,303,2.0,6.0,86,0.00,,,0.00,,2013-01-17 13:52:00,
2013-01-17 09:03:00,16.0,13.0,30.08,WNW,303,2.0,6.0,86,0.00,,,0.00,,2013-01-17 14:03:00,
2013-01-17 09:10:00,14.0,10.0,30.12,NW,309,1.0,4.0,84,0.00,,,0.00,,2013-01-17 14:10:00,
2013-01-17 09:13:00,16.0,13.0,30.08,WNW,303,2.0,6.0,86,0.00,,,0.00,,2013-01-17 14:13:00,
2013-01-17 09:23:00,15.0,12.0,30.10,NW,317,6.0,6.0,86,0.00,,,0.00,,2013-01-17 14:23:00,
2013-01-17 09:33:00,14.0,10.0,30.12,NW,309,1.0,4.0,84,0.00,,,0.00,,2013-01-17 14:33:00,
2013-01-17 09:43:00,14.0,10.0,30.12,NW,309,1.0,4.0,84,0.00,,,0.00,,2013-01-17 14:43:00,
2013-01-17 09:53:00,14.0,10.0,30.12,NW,309,1.0,4.0,84,0.00,,,0.00,,2013-01-17 14:53:00,
2013-01-17 10:03:00,14.0,10.0,30.12,NW,309,1.0,4.0,84,0.00,,,0.00,,2013-01-17 15:03:00,
2013-01-17 10:53:00,12.0,7.0,30.18,West,261,8.0,8.0,80,0.00,,,0.00,,2013-01-17 15:53:00,
2013-01-17 11:03:00,12.0,7.0,30.18,West,261,8.0,8.0,80,0.00,,,0.00,,2013-01-17 16:03:00,
2013-01-17 11:12:00,12.0,7.0,30.18,West,261,8.0,8.0,80,0.00,,,0.00,,2013-01-17 16:12:00,
2013-01-17 11:23:00,12.0,7.0,30.19,WNW,292,4.0,0.0,80,0.00,,,0.00,,2013-01-17 16:23:00,
2013-01-17 11:33:00,11.0,5.0,30.19,WNW,282,2.0,4.0,77,0.00,,,0.00,,2013-01-17 16:33:00,
2013-01-17 11:43:00,11.0,5.0,30.19,WNW,282,2.0,4.0,77,0.00,,,0.00,,2013-01-17 16:43:00,
2013-01-17 11:53:00,11.0,5.0,30.19,WNW,283,6.0,6.0,75,0.00,,,0.00,,2013-01-17 16:53:00,
2013-01-17 12:03:00,11.0,5.0,30.19,WNW,283,6.0,6.0,75,0.00,,,0.00,,2013-01-17 17:03:00,
2013-01-17 12:13:00,11.0,5.0,30.19,WNW,283,6.0,6.0,75,0.00,,,0.00,,2013-01-17 17:13:00,
2013-01-17 12:23:00,11.0,3.0,30.20,WNW,289,9.0,9.0,71,0.00,,,0.00,,2013-01-17 17:23:00,
2013-01-17 12:33:00,11.0,3.0,30.20,NNW,338,2.0,4.0,69,0.00,,,0.00,,2013-01-17 17:33:00,
2013-01-17 12:43:00,11.0,3.0,30.20,NNW,338,2.0,4.0,69,0.00,,,0.00,,2013-01-17 17:43:00,
2013-01-17 12:53:00,11.0,3.0,30.19,WSW,241,2.0,4.0,69,0.00,,,0.00,,2013-01-17 17:53:00,
2013-01-17 13:04:00,11.0,3.0,30.19,WSW,241,2.0,4.0,69,0.00,,,0.00,,2013-01-17 18:04:00,
2013-01-17 13:12:00,11.0,3.0,30.19,WSW,241,2.0,4.0,69,0.00,,,0.00,,2013-01-17 18:12:00,
2013-01-17 13:23:00,12.0,4.0,30.20,West,275,4.0,0.0,71,0.00,,,0.00,,2013-01-17 18:23:00,
2013-01-17 13:33:00,12.0,3.0,30.20,NW,319,4.0,6.0,67,0.00,,,0.00,,2013-01-17 18:33:00,
2013-01-17 13:44:00,12.0,3.0,30.20,NW,319,4.0,6.0,67,0.00,,,0.00,,2013-01-17 18:44:00,
2013-01-17 13:53:00,12.0,3.0,30.20,WNW,288,6.0,6.0,66,0.00,,,0.00,,2013-01-17 18:53:00,
2013-01-17 14:03:00,12.0,3.0,30.20,WNW,288,6.0,6.0,66,0.00,,,0.00,,2013-01-17 19:03:00,
2013-01-17 14:13:00,12.0,3.0,30.20,WNW,288,6.0,6.0,66,0.00,,,0.00,,2013-01-17 19:13:00,
2013-01-17 14:23:00,11.0,3.0,30.20,NW,304,1.0,2.0,70,0.00,,,0.00,,2013-01-17 19:23:00,
2013-01-17 14:30:00,10.0,2.0,30.20,WNW,290,5.0,5.0,68,0.00,,,0.00,,2013-01-17 19:30:00,
2013-01-17 14:33:00,10.0,2.0,30.20,NNW,343,2.0,4.0,69,0.00,,,0.00,,2013-01-17 19:33:00,
2013-01-17 14:43:00,10.0,2.0,30.20,NNW,343,2.0,4.0,69,0.00,,,0.00,,2013-01-17 19:43:00,
2013-01-17 14:53:00,10.0,2.0,30.20,WNW,290,5.0,5.0,68,0.00,,,0.00,,2013-01-17 19:53:00,
2013-01-17 15:03:00,10.0,2.0,30.20,WNW,290,5.0,5.0,68,0.00,,,0.00,,2013-01-17 20:03:00,
2013-01-17 15:12:00,10.0,2.0,30.20,WNW,290,5.0,5.0,68,0.00,,,0.00,,2013-01-17 20:12:00,
2013-01-17 15:23:00,10.0,2.0,30.20,WNW,290,5.0,5.0,68,0.00,,,0.00,,2013-01-17 20:23:00,
2013-01-17 15:54:00,9.0,1.0,30.22,NW,319,3.0,3.0,68,0.00,,,0.00,,2013-01-17 20:54:00,
2013-01-17 16:03:00,9.0,1.0,30.22,NW,319,3.0,3.0,68,0.00,,,0.00,,2013-01-17 21:03:00,
2013-01-17 16:13:00,9.0,1.0,30.22,NW,319,3.0,3.0,68,0.00,,,0.00,,2013-01-17 21:13:00,
2013-01-17 16:23:00,8.0,0.0,30.21,NW,314,6.0,6.0,70,0.00,,,0.00,,2013-01-17 21:23:00,
2013-01-17 16:34:00,8.0,0.0,30.21,NW,314,4.0,4.0,69,0.00,,,0.00,,2013-01-17 21:34:00,
2013-01-17 16:43:00,8.0,0.0,30.21,NW,314,4.0,4.0,69,0.00,,,0.00,,2013-01-17 21:43:00,
2013-01-17 16:52:00,7.0,0.0,30.21,West,278,0.0,1.0,71,0.00,,,0.00,,2013-01-17 21:52:00,
2013-01-17 17:04:00,7.0,0.0,30.21,West,278,0.0,1.0,71,0.00,,,0.00,,2013-01-17 22:04:00,
2013-01-17 17:12:00,7.0,0.0,30.21,West,278,0.0,1.0,71,0.00,,,0.00,,2013-01-17 22:12:00,
2013-01-17 17:23:00,6.0,-1.0,30.22,WNW,296,0.0,0.0,72,0.00,,,0.00,,2013-01-17 22:23:00,
2013-01-17 17:33:00,5.0,-2.0,30.22,NNW,327,4.0,4.0,72,0.00,,,0.00,,2013-01-17 22:33:00,
2013-01-17 17:43:00,5.0,-2.0,30.22,NNW,327,4.0,4.0,72,0.00,,,0.00,,2013-01-17 22:43:00,
2013-01-17 17:52:00,4.0,-2.0,30.23,WNW,289,0.0,0.0,76,0.00,,,0.00,,2013-01-17 22:52:00,
2013-01-17 18:03:00,4.0,-2.0,30.23,WNW,289,0.0,0.0,76,0.00,,,0.00,,2013-01-17 23:03:00,
2013-01-17 18:12:00,4.0,-2.0,30.23,WNW,289,0.0,0.0,76,0.00,,,0.00,,2013-01-17 23:12:00,
2013-01-17 18:23:00,4.0,-2.0,30.24,West,261,0.0,0.0,76,0.00,,,0.00,,2013-01-17 23:23:00,
2013-01-17 18:33:00,3.0,-2.0,30.24,West,261,0.0,0.0,78,0.00,,,0.00,,2013-01-17 23:33:00,
2013-01-17 18:43:00,3.0,-2.0,30.24,West,261,0.0,0.0,78,0.00,,,0.00,,2013-01-17 23:43:00,
2013-01-17 18:53:00,2.0,-3.0,30.23,West,261,0.0,0.0,79,0.00,,,0.00,,2013-01-17 23:53:00,
2013-01-17 19:03:00,2.0,-3.0,30.23,West,261,0.0,0.0,79,0.00,,,0.00,,2013-01-18 00:03:00,
2013-01-17 19:12:00,2.0,-3.0,30.23,West,261,0.0,0.0,79,0.00,,,0.00,,2013-01-18 00:12:00,
2013-01-17 19:23:00,2.0,-2.0,30.24,West,261,0.0,0.0,81,0.00,,,0.00,,2013-01-18 00:23:00,
2013-01-17 19:32:00,2.0,-2.0,30.24,West,261,0.0,0.0,81,0.00,,,0.00,,2013-01-18 00:32:00,
2013-01-17 19:43:00,1.0,-3.0,30.24,West,261,0.0,0.0,82,0.00,,,0.00,,2013-01-18 00:43:00,